Flugplatz Laichingen

Für EDPJ sind keine METAR/TAF Berichte vorhanden.
Es werden die Flugwettermeldungen vom Flugplatz Laupheim Airport in 36 km Entfernung angezeigt.

Bericht für ETHL

vom 27.09. um 00:20 UTC

Wind 15 kt aus 230°

Sichtweite 8000 m

Temperatur 7.0°C

Taupunkt 4.0°C

Luftfeuchtigkeit 81%

Luftdruck 1002 hPa

ETHL 270020Z AUTO 23015KT 8000 // ////// 07/04 Q1002 ///
Keine Prognose (TAF) verfügbar.
Impressum